Time;durP1;ratioP1;P1;durP2;ratioP2;P2;SDS_P1;SDS_P2;PMS_P1;PMS_P2;Temp;Humidity;BMP_temperature;BMP_pressure;BME280_temperature;BME280_humidity;BME280_pressure;Samples;Min_cycle;Max_cycle;Signal;HPM_P1;HPM_P2
2022/06/08 00:01:53;;;;;;;3.35;2.55;;;21.60;66.90;;;;;;4928630;28;89479;-73
2022/06/08 00:04:23;;;;;;;3.58;2.25;;;21.60;66.80;;;;;;4932451;28;88042;-74
2022/06/08 00:06:50;;;;;;;3.45;2.35;;;21.60;66.80;;;;;;4931216;28;87813;-76
2022/06/08 00:09:16;;;;;;;4.43;2.42;;;21.60;66.80;;;;;;4933172;28;87381;-73
2022/06/08 00:11:41;;;;;;;3.80;2.00;;;21.60;66.80;;;;;;4931256;28;89117;-72
2022/06/08 00:14:07;;;;;;;2.78;2.08;;;21.60;66.70;;;;;;4930012;28;90540;-72
2022/06/08 00:16:33;;;;;;;2.35;2.00;;;21.60;66.80;;;;;;4932106;28;88049;-72
2022/06/08 00:18:58;;;;;;;4.03;2.40;;;21.60;66.80;;;;;;4931522;28;88086;-73
2022/06/08 00:21:24;;;;;;;2.75;2.13;;;21.60;66.80;;;;;;4930891;28;88052;-77
2022/06/08 00:23:50;;;;;;;3.20;2.10;;;21.60;66.70;;;;;;4931904;28;87884;-71
2022/06/08 00:26:16;;;;;;;3.47;2.30;;;21.60;66.50;;;;;;4932310;28;87343;-72
2022/06/08 00:28:42;;;;;;;3.53;2.40;;;21.60;66.80;;;;;;4931803;28;87596;-74
2022/06/08 00:31:07;;;;;;;3.20;2.15;;;21.60;66.70;;;;;;4931892;28;88315;-73
2022/06/08 00:33:33;;;;;;;3.65;2.38;;;21.60;66.70;;;;;;4930323;28;90348;-72
2022/06/08 00:35:59;;;;;;;3.20;2.42;;;21.60;66.70;;;;;;4931465;28;88281;-72
2022/06/08 00:38:25;;;;;;;3.20;1.90;;;21.60;66.70;;;;;;4930410;28;89541;-73
2022/06/08 00:41:16;;;;;;;2.40;2.13;;;21.60;66.60;;;;;;4932033;28;88670;-76
2022/06/08 00:43:42;;;;;;;3.83;2.30;;;21.50;66.50;;;;;;4931928;28;88777;-75
2022/06/08 00:46:08;;;;;;;2.20;2.00;;;21.60;66.60;;;;;;4931415;28;88119;-76
2022/06/08 00:48:38;;;;;;;3.35;2.33;;;21.50;66.60;;;;;;4930873;28;87644;-74
2022/06/08 00:51:04;;;;;;;4.70;1.92;;;21.60;66.60;;;;;;4931264;28;91279;-75
2022/06/08 00:53:36;;;;;;;4.22;2.10;;;21.50;66.30;;;;;;4929223;28;91003;-73
2022/06/08 00:56:04;;;;;;;4.18;2.35;;;21.50;66.30;;;;;;4929121;28;87280;-72
2022/06/08 00:58:33;;;;;;;3.00;2.10;;;21.50;66.30;;;;;;4945703;28;92034;-72
2022/06/08 01:00:59;;;;;;;2.43;1.80;;;21.50;66.30;;;;;;4931954;28;87908;-73
2022/06/08 01:03:27;;;;;;;3.38;2.40;;;21.50;66.30;;;;;;4930122;28;89382;-73
2022/06/08 01:06:06;;;;;;;2.60;1.92;;;21.50;66.20;;;;;;4929009;28;87918;-72
2022/06/08 01:08:37;;;;;;;3.97;2.28;;;21.60;66.20;;;;;;4931029;28;87718;-73
2022/06/08 01:11:32;;;;;;;2.50;1.95;;;21.50;66.30;;;;;;4928464;28;92934;-72
2022/06/08 01:14:01;;;;;;;3.85;2.35;;;21.50;66.50;;;;;;4924477;28;87817;-73
2022/06/08 01:16:26;;;;;;;2.72;2.00;;;21.50;66.30;;;;;;4931301;28;87934;-76
2022/06/08 01:18:52;;;;;;;3.45;2.25;;;21.50;66.50;;;;;;4932526;28;87348;-73
2022/06/08 01:21:20;;;;;;;2.88;1.95;;;21.50;66.20;;;;;;4930474;28;88078;-76
2022/06/08 01:23:56;;;;;;;2.13;1.73;;;21.50;66.30;;;;;;4930554;28;87187;-76
2022/06/08 01:26:29;;;;;;;3.20;2.10;;;21.50;66.30;;;;;;4931432;28;87230;-77
2022/06/08 01:29:16;;;;;;;2.95;2.10;;;21.50;66.20;;;;;;4931228;28;88262;-75
2022/06/08 01:31:57;;;;;;;3.13;2.10;;;21.50;66.10;;;;;;4933725;28;88776;-77
2022/06/08 01:34:29;;;;;;;2.55;1.83;;;21.50;66.10;;;;;;4933908;28;87898;-72
2022/06/08 01:37:05;;;;;;;2.70;2.00;;;21.50;66.20;;;;;;4934206;28;87524;-73
2022/06/08 01:40:06;;;;;;;2.90;2.00;;;21.50;66.10;;;;;;4932576;28;88582;-75
2022/06/08 01:42:50;;;;;;;3.22;1.90;;;21.50;66.10;;;;;;4933148;28;87934;-73
2022/06/08 01:45:40;;;;;;;2.47;1.88;;;21.50;66.30;;;;;;4933959;28;88142;-73
2022/06/08 01:48:24;;;;;;;2.85;1.92;;;21.50;66.20;;;;;;4941016;28;89816;-73
2022/06/08 01:51:15;;;;;;;2.22;1.70;;;21.50;66.20;;;;;;4934973;28;87020;-73
2022/06/08 01:53:52;;;;;;;3.08;2.13;;;21.50;66.20;;;;;;4933965;28;88524;-72
2022/06/08 01:56:21;;;;;;;2.80;2.00;;;21.50;66.20;;;;;;4933680;28;87833;-74
2022/06/08 01:59:01;;;;;;;2.67;1.80;;;21.50;66.20;;;;;;4933603;28;88075;-72
2022/06/08 02:01:48;;;;;;;2.38;2.15;;;21.50;66.20;;;;;;4933561;28;87562;-71
2022/06/08 02:04:33;;;;;;;2.65;1.88;;;21.50;66.00;;;;;;4933488;28;88352;-72
2022/06/08 02:07:12;;;;;;;2.97;2.20;;;21.50;66.10;;;;;;4933678;28;87812;-72
2022/06/08 02:09:51;;;;;;;2.17;1.70;;;21.50;65.90;;;;;;4934220;28;87631;-72
2022/06/08 02:12:17;;;;;;;2.35;1.55;;;21.50;66.00;;;;;;4933669;28;87855;-74
2022/06/08 02:14:48;;;;;;;2.17;1.88;;;21.50;66.10;;;;;;4933589;28;87996;-73
2022/06/08 02:17:30;;;;;;;2.38;1.70;;;21.50;65.90;;;;;;4934806;28;87254;-72
2022/06/08 02:20:19;;;;;;;2.17;1.83;;;21.50;65.80;;;;;;4934073;28;87571;-73
2022/06/08 02:22:58;;;;;;;3.33;2.38;;;21.50;65.90;;;;;;4932002;28;89345;-73
2022/06/08 02:25:40;;;;;;;2.73;1.90;;;21.50;66.70;;;;;;4947156;28;89237;-76
2022/06/08 02:28:13;;;;;;;3.67;1.95;;;21.50;65.90;;;;;;4932927;28;88941;-72
2022/06/08 02:30:45;;;;;;;2.95;1.92;;;21.50;65.80;;;;;;4933545;28;87378;-75
2022/06/08 02:36:28;;;;;;;4.30;2.03;;;21.50;65.90;;;;;;4932638;28;87914;-72
2022/06/08 02:39:03;;;;;;;2.47;1.75;;;21.40;65.70;;;;;;4931754;28;90838;-72
2022/06/08 02:41:31;;;;;;;1.73;1.45;;;21.50;65.80;;;;;;4947415;28;87943;-77
2022/06/08 02:44:02;;;;;;;3.90;2.10;;;21.40;65.70;;;;;;4933561;28;87114;-73
2022/06/08 02:46:51;;;;;;;3.05;1.90;;;21.40;65.50;;;;;;4933390;28;90053;-75
2022/06/08 02:49:17;;;;;;;2.55;1.80;;;21.40;65.70;;;;;;4948175;28;89190;-73
2022/06/08 02:51:50;;;;;;;2.30;1.80;;;21.40;65.80;;;;;;4933885;28;87936;-72
2022/06/08 02:54:26;;;;;;;2.47;1.63;;;21.40;65.80;;;;;;4947987;28;90542;-73
2022/06/08 02:57:30;;;;;;;2.97;1.70;;;21.40;65.90;;;;;;4933344;28;88626;-73
2022/06/08 03:00:13;;;;;;;2.20;1.60;;;21.50;65.80;;;;;;4933861;28;88400;-73
2022/06/08 03:02:45;;;;;;;2.40;1.85;;;21.40;65.80;;;;;;4934341;28;87639;-75
2022/06/08 03:05:13;;;;;;;2.30;1.88;;;21.40;65.80;;;;;;4932374;28;87508;-74
2022/06/08 03:07:50;;;;;;;2.03;1.63;;;21.40;65.80;;;;;;4932422;28;88289;-73
2022/06/08 03:10:18;;;;;;;2.15;1.65;;;21.40;65.80;;;;;;4931938;28;90283;-72
2022/06/08 03:13:05;;;;;;;2.45;1.80;;;21.40;65.80;;;;;;4948181;28;87771;-76
2022/06/08 03:15:33;;;;;;;1.40;1.30;;;21.40;65.70;;;;;;4932339;28;87636;-74
2022/06/08 03:17:58;;;;;;;2.35;1.98;;;21.40;65.80;;;;;;4930741;28;92155;-76
2022/06/08 03:20:25;;;;;;;1.83;1.40;;;21.40;65.70;;;;;;4932257;28;87887;-72
2022/06/08 03:22:51;;;;;;;2.90;1.90;;;21.40;65.80;;;;;;4930372;28;88077;-72
2022/06/08 03:25:17;;;;;;;1.70;1.60;;;21.40;66.40;;;;;;4931924;28;87806;-75
2022/06/08 03:27:44;;;;;;;1.67;1.58;;;21.40;65.60;;;;;;4931299;28;91470;-72
2022/06/08 03:30:11;;;;;;;2.55;1.83;;;21.40;65.50;;;;;;4930865;28;91372;-75
2022/06/08 03:32:37;;;;;;;2.55;1.73;;;21.40;65.60;;;;;;4930301;28;86974;-73
2022/06/08 03:35:03;;;;;;;2.65;1.95;;;21.40;65.40;;;;;;4932811;28;86823;-72
2022/06/08 03:37:29;;;;;;;1.80;1.70;;;21.40;65.50;;;;;;4933263;28;87526;-72
2022/06/08 03:39:54;;;;;;;1.77;1.48;;;21.40;65.60;;;;;;4932304;28;87802;-76
2022/06/08 03:42:20;;;;;;;1.90;1.60;;;21.40;65.50;;;;;;4932001;28;88283;-71
2022/06/08 03:44:45;;;;;;;2.13;1.60;;;21.40;65.40;;;;;;4930603;28;89512;-75
2022/06/08 03:47:18;;;;;;;1.98;1.58;;;21.40;65.60;;;;;;4931396;28;90370;-72
2022/06/08 03:49:44;;;;;;;2.05;1.48;;;21.40;65.60;;;;;;4932850;28;87160;-73
2022/06/08 03:52:14;;;;;;;2.38;1.75;;;21.40;65.60;;;;;;4932036;28;87710;-72
2022/06/08 03:54:46;;;;;;;2.47;1.55;;;21.40;65.50;;;;;;4932255;28;88113;-72
2022/06/08 03:57:14;;;;;;;2.67;1.52;;;21.40;65.60;;;;;;4930733;28;92442;-72
2022/06/08 03:59:41;;;;;;;2.08;1.50;;;21.40;65.60;;;;;;4931077;28;91855;-72
2022/06/08 04:02:09;;;;;;;2.45;1.60;;;21.40;66.60;;;;;;4930973;28;88239;-72
2022/06/08 04:04:35;;;;;;;2.35;1.67;;;21.40;65.70;;;;;;4932205;28;87097;-72
2022/06/08 04:07:01;;;;;;;1.90;1.60;;;21.40;65.60;;;;;;4929952;28;93869;-73
2022/06/08 04:09:27;;;;;;;2.20;1.63;;;21.40;65.70;;;;;;4932199;28;88938;-76
2022/06/08 04:11:53;;;;;;;1.92;1.40;;;21.40;65.70;;;;;;4930776;28;87945;-75
2022/06/08 04:14:18;;;;;;;2.35;1.70;;;21.40;65.60;;;;;;4932004;28;87610;-72
2022/06/08 04:16:44;;;;;;;2.85;2.03;;;21.40;65.80;;;;;;4931344;28;88051;-73
2022/06/08 04:19:10;;;;;;;1.75;1.33;;;21.40;65.60;;;;;;4931531;28;87868;-74
2022/06/08 04:21:36;;;;;;;1.92;1.60;;;21.40;65.50;;;;;;4932314;28;87120;-76
2022/06/08 04:24:02;;;;;;;2.10;1.50;;;21.40;65.50;;;;;;4932604;28;87445;-74
2022/06/08 04:26:28;;;;;;;2.00;1.60;;;21.40;65.50;;;;;;4946178;28;89346;-71
2022/06/08 04:28:53;;;;;;;2.03;1.63;;;21.40;65.50;;;;;;4931712;28;87603;-73
2022/06/08 04:31:20;;;;;;;2.50;1.85;;;21.40;65.40;;;;;;4929259;28;88516;-76
2022/06/08 04:33:46;;;;;;;1.73;1.63;;;21.30;65.40;;;;;;4930793;28;87982;-72
2022/06/08 04:36:12;;;;;;;2.92;1.50;;;21.30;65.40;;;;;;4930658;28;87734;-73
2022/06/08 04:38:39;;;;;;;2.53;1.70;;;21.30;65.50;;;;;;4930839;28;87326;-71
2022/06/08 04:41:05;;;;;;;1.83;1.50;;;21.30;65.60;;;;;;4931892;28;86958;-71
2022/06/08 04:43:31;;;;;;;2.15;1.40;;;21.40;65.40;;;;;;4931894;28;87206;-73
2022/06/08 04:45:57;;;;;;;1.58;1.33;;;21.30;65.50;;;;;;4931746;28;88586;-71
2022/06/08 04:48:23;;;;;;;2.08;1.63;;;21.30;65.30;;;;;;4931437;28;88045;-71
2022/06/08 04:50:49;;;;;;;2.30;1.58;;;21.30;65.60;;;;;;4931260;28;87608;-72
2022/06/08 04:53:15;;;;;;;1.60;1.50;;;21.40;65.50;;;;;;4931015;28;87573;-74
2022/06/08 04:55:41;;;;;;;1.98;1.33;;;21.30;65.40;;;;;;4930414;28;89419;-73
2022/06/08 04:58:06;;;;;;;2.30;1.75;;;21.30;65.50;;;;;;4930675;28;87884;-74
2022/06/08 05:00:32;;;;;;;1.63;1.35;;;21.40;65.40;;;;;;4930492;28;87518;-71
2022/06/08 05:02:58;;;;;;;1.83;1.33;;;21.40;65.60;;;;;;4930019;28;87891;-71
2022/06/08 05:05:24;;;;;;;2.10;1.60;;;21.30;65.30;;;;;;4928694;28;88872;-73
2022/06/08 05:07:51;;;;;;;1.60;1.50;;;21.40;65.60;;;;;;4929247;28;91249;-71
2022/06/08 05:10:17;;;;;;;2.67;1.70;;;21.30;65.40;;;;;;4930863;28;88175;-71
2022/06/08 05:12:44;;;;;;;1.48;1.30;;;21.30;65.40;;;;;;4929642;28;87081;-70
2022/06/08 05:15:16;;;;;;;2.70;1.60;;;21.30;65.50;;;;;;4929990;28;88347;-70
2022/06/08 05:17:42;;;;;;;1.63;1.52;;;21.30;65.30;;;;;;4931063;28;88089;-71
2022/06/08 05:20:10;;;;;;;1.65;1.42;;;21.30;65.40;;;;;;4929358;28;88329;-71
2022/06/08 05:22:37;;;;;;;1.98;1.50;;;21.30;65.30;;;;;;4931585;28;87464;-74
2022/06/08 05:25:04;;;;;;;1.80;1.48;;;21.40;65.50;;;;;;4929730;28;91079;-71
2022/06/08 05:27:30;;;;;;;1.60;1.35;;;21.30;65.20;;;;;;4930035;28;90005;-69
2022/06/08 05:29:56;;;;;;;1.75;1.40;;;21.40;65.00;;;;;;4929469;28;87286;-70
2022/06/08 05:32:22;;;;;;;1.73;1.63;;;21.30;65.20;;;;;;4930326;28;87581;-69
2022/06/08 05:34:48;;;;;;;3.25;1.50;;;21.30;65.10;;;;;;4930250;28;88080;-72
2022/06/08 05:37:13;;;;;;;1.90;1.70;;;21.30;65.20;;;;;;4931192;28;87166;-69
2022/06/08 05:39:39;;;;;;;1.65;1.40;;;21.30;65.00;;;;;;4930591;28;86966;-69
2022/06/08 05:42:05;;;;;;;2.10;1.70;;;21.30;65.20;;;;;;4929446;28;88134;-70
2022/06/08 05:44:32;;;;;;;1.55;1.30;;;21.40;65.10;;;;;;4928961;28;90572;-72
2022/06/08 05:46:58;;;;;;;2.35;1.80;;;21.30;65.10;;;;;;4930591;28;88597;-73
2022/06/08 05:49:24;;;;;;;2.13;1.65;;;21.40;65.10;;;;;;4931341;28;87478;-75
2022/06/08 05:51:49;;;;;;;2.00;1.55;;;21.30;65.00;;;;;;4929891;28;87416;-71
2022/06/08 05:54:15;;;;;;;2.35;1.30;;;21.30;65.10;;;;;;4930656;28;88091;-75
2022/06/08 05:56:41;;;;;;;1.52;1.42;;;21.30;64.70;;;;;;4929056;28;87879;-70
2022/06/08 05:59:07;;;;;;;2.42;1.80;;;21.30;64.80;;;;;;4930298;28;87955;-77
2022/06/08 06:01:33;;;;;;;4.30;1.70;;;21.40;65.30;;;;;;4928994;28;87195;-70
2022/06/08 06:04:03;;;;;;;1.80;1.58;;;21.40;65.50;;;;;;4930349;28;88244;-70
2022/06/08 06:06:29;;;;;;;3.33;2.13;;;21.40;66.40;;;;;;4929573;28;87734;-70
2022/06/08 06:08:55;;;;;;;3.60;2.08;;;21.40;65.80;;;;;;4930416;28;88840;-70
2022/06/08 06:11:21;;;;;;;4.57;1.83;;;21.30;65.70;;;;;;4931168;28;88691;-76
2022/06/08 06:13:47;;;;;;;7.90;1.67;;;21.40;66.00;;;;;;4927459;28;92872;-73
2022/06/08 06:16:12;;;;;;;2.47;1.65;;;21.40;66.10;;;;;;4931765;28;88301;-73
2022/06/08 06:18:38;;;;;;;5.38;1.70;;;21.40;66.20;;;;;;4933690;28;87302;-76
2022/06/08 06:21:04;;;;;;;4.05;2.25;;;21.40;66.50;;;;;;4934272;28;89206;-71
2022/06/08 06:23:30;;;;;;;4.00;2.00;;;21.40;66.30;;;;;;4936280;28;87980;-69
2022/06/08 06:25:56;;;;;;;7.57;1.90;;;21.40;66.50;;;;;;4936361;28;87048;-70
2022/06/08 06:28:22;;;;;;;3.40;1.85;;;21.40;66.80;;;;;;4933646;28;86951;-76
2022/06/08 06:30:48;;;;;;;6.30;1.98;;;21.40;66.90;;;;;;4931686;28;88982;-75
2022/06/08 06:33:15;;;;;;;5.97;2.28;;;21.40;66.70;;;;;;4931219;28;91726;-70
2022/06/08 06:35:41;;;;;;;3.13;1.50;;;21.40;66.80;;;;;;4933011;28;88144;-73
2022/06/08 06:38:08;;;;;;;4.85;1.80;;;21.40;66.60;;;;;;4928891;28;87880;-72
2022/06/08 06:40:35;;;;;;;4.90;2.33;;;21.40;66.60;;;;;;4932736;28;88220;-71
2022/06/08 06:43:01;;;;;;;5.90;2.28;;;21.40;66.50;;;;;;4932370;28;88159;-73
2022/06/08 06:45:28;;;;;;;2.67;1.92;;;21.40;66.60;;;;;;4931754;28;89269;-72
2022/06/08 06:47:56;;;;;;;4.90;2.20;;;21.40;66.60;;;;;;4929906;28;87469;-73
2022/06/08 06:50:23;;;;;;;5.35;2.25;;;21.40;66.60;;;;;;4930789;28;89956;-75
2022/06/08 06:52:50;;;;;;;3.90;1.63;;;21.40;66.60;;;;;;4931337;28;90847;-73
2022/06/08 06:55:24;;;;;;;2.65;1.83;;;21.40;66.70;;;;;;4930378;28;88853;-72
2022/06/08 06:57:49;;;;;;;6.65;1.90;;;21.40;66.60;;;;;;4969871;22;87813;-90
2022/06/08 07:00:18;;;;;;;4.35;2.47;;;21.40;66.50;;;;;;4934168;28;88383;-84
2022/06/08 07:02:44;;;;;;;4.18;1.90;;;21.40;66.60;;;;;;4935756;28;87512;-82
2022/06/08 07:05:22;;;;;;;4.03;1.77;;;21.40;65.90;;;;;;4877466;28;88226;-82
2022/06/08 07:07:55;;;;;;;4.38;2.00;;;21.40;66.60;;;;;;4916268;28;87009;-83
2022/06/08 07:10:21;;;;;;;5.47;1.85;;;21.40;66.70;;;;;;4916090;28;89517;-85
2022/06/08 07:12:48;;;;;;;8.50;2.45;;;21.40;66.80;;;;;;4919499;28;88213;-85
2022/06/08 07:15:16;;;;;;;6.68;2.28;;;21.40;66.80;;;;;;4918234;28;89121;-84
2022/06/08 07:17:42;;;;;;;9.60;2.40;;;21.40;66.90;;;;;;4920011;28;87870;-89
2022/06/08 07:20:09;;;;;;;10.10;3.10;;;21.50;66.90;;;;;;4917308;28;89858;-87
2022/06/08 07:22:34;;;;;;;13.60;3.30;;;21.40;67.10;;;;;;4919069;28;88099;-87
2022/06/08 07:25:00;;;;;;;13.80;3.00;;;21.40;67.00;;;;;;4922983;28;88259;-84
2022/06/08 07:27:27;;;;;;;17.70;3.33;;;21.40;67.10;;;;;;4916137;28;87776;-83
2022/06/08 07:29:53;;;;;;;12.95;3.83;;;21.50;67.20;;;;;;4916630;28;87576;-83
2022/06/08 07:32:20;;;;;;;14.07;3.60;;;21.40;67.40;;;;;;4918019;28;87331;-83
2022/06/08 07:34:45;;;;;;;16.08;4.47;;;21.40;67.20;;;;;;4917578;28;88296;-85
2022/06/08 07:37:11;;;;;;;23.30;5.65;;;21.40;67.40;;;;;;4916736;28;87452;-83
2022/06/08 07:39:37;;;;;;;28.73;4.97;;;21.40;67.40;;;;;;4916569;28;86291;-83
2022/06/08 07:42:03;;;;;;;18.00;5.35;;;21.40;67.30;;;;;;4915836;28;87474;-83
2022/06/08 07:44:29;;;;;;;31.80;6.57;;;21.40;67.30;;;;;;4914859;28;88164;-82
2022/06/08 07:46:54;;;;;;;29.85;7.65;;;21.50;67.20;;;;;;4916942;28;88688;-82
2022/06/08 07:49:39;;;;;;;26.67;6.60;;;21.50;67.20;;;;;;4916943;28;87178;-84
2022/06/08 07:52:13;;;;;;;30.38;6.68;;;21.50;67.50;;;;;;4918289;28;89231;-83
2022/06/08 07:54:41;;;;;;;31.48;5.90;;;21.50;67.30;;;;;;4916727;28;87098;-89
2022/06/08 07:57:12;;;;;;;27.95;7.80;;;21.50;67.20;;;;;;4913998;28;87527;-83
2022/06/08 07:59:38;;;;;;;21.98;6.28;;;21.50;67.50;;;;;;4916778;28;87616;-83
2022/06/08 08:02:08;;;;;;;26.42;7.03;;;21.50;67.40;;;;;;4912999;28;88327;-82
2022/06/08 08:04:36;;;;;;;;;;;21.50;67.20;;;;;;4916122;28;87623;-82
2022/06/08 08:07:02;;;;;;;32.05;7.40;;;21.50;67.10;;;;;;4918096;28;87915;-83
2022/06/08 08:09:48;;;;;;;32.35;7.65;;;21.50;66.80;;;;;;4916835;28;87393;-85
2022/06/08 08:12:14;;;;;;;22.00;6.70;;;21.50;67.00;;;;;;4910585;28;88640;-83
2022/06/08 08:14:40;;;;;;;24.55;6.50;;;21.50;66.90;;;;;;4913634;28;87877;-84
2022/06/08 08:17:06;;;;;;;24.20;6.60;;;21.50;67.30;;;;;;4915602;28;87255;-83
2022/06/08 08:19:32;;;;;;;26.88;7.50;;;21.50;67.60;;;;;;4913841;28;89108;-83
2022/06/08 08:21:58;;;;;;;38.85;10.32;;;21.40;67.40;;;;;;4914951;28;87458;-81
2022/06/08 08:24:23;;;;;;;54.00;14.70;;;21.40;67.50;;;;;;4914296;28;87417;-84
2022/06/08 08:26:50;;;;;;;24.90;6.68;;;21.40;67.90;;;;;;4914216;28;86989;-82
2022/06/08 08:29:17;;;;;;;34.10;7.65;;;21.50;66.70;;;;;;4914833;28;87404;-83
2022/06/08 08:31:43;;;;;;;28.10;7.82;;;21.50;66.30;;;;;;4915643;28;88795;-80
2022/06/08 08:34:09;;;;;;;30.98;9.05;;;21.50;66.60;;;;;;4945434;28;87775;-83
2022/06/08 08:36:35;;;;;;;33.53;8.65;;;21.50;67.80;;;;;;4912794;28;88971;-82
2022/06/08 08:39:01;;;;;;;27.38;9.30;;;21.50;68.20;;;;;;4911787;28;89778;-81
2022/06/08 08:44:41;;;;;;;36.42;8.82;;;21.40;68.40;;;;;;4914371;28;87465;-81
2022/06/08 08:47:38;;;;;;;38.95;8.77;;;21.40;69.00;;;;;;4915654;28;86912;-81
2022/06/08 08:50:15;;;;;;;39.13;8.48;;;21.50;69.10;;;;;;4914831;28;87651;-82
2022/06/08 08:53:09;;;;;;;26.17;8.52;;;21.50;69.60;;;;;;4914183;28;87466;-82
2022/06/08 08:56:11;;;;;;;25.88;8.93;;;21.40;69.60;;;;;;4917033;28;87286;-83
2022/06/08 08:58:40;;;;;;;33.67;9.27;;;21.40;69.70;;;;;;4857085;28;87027;-83
2022/06/08 09:01:20;;;;;;;39.33;9.43;;;21.50;70.20;;;;;;4910933;28;87631;-83
2022/06/08 09:03:47;;;;;;;31.63;8.43;;;21.50;70.60;;;;;;4914530;28;89885;-83
2022/06/08 09:06:14;;;;;;;30.90;8.68;;;21.50;70.80;;;;;;4916807;28;88517;-80
2022/06/08 09:08:48;;;;;;;32.38;8.35;;;21.50;70.40;;;;;;4913900;28;87442;-82
2022/06/08 09:11:26;;;;;;;38.50;9.32;;;21.50;70.50;;;;;;4913972;28;88118;-84
2022/06/08 09:13:56;;;;;;;27.88;8.57;;;21.50;70.70;;;;;;4912207;28;89549;-86
2022/06/08 09:16:36;;;;;;;32.05;8.75;;;21.50;70.80;;;;;;4912846;28;88378;-82
2022/06/08 09:19:26;;;;;;;28.35;7.95;;;21.50;70.80;;;;;;4910783;28;87442;-83
2022/06/08 09:22:16;;;;;;;24.42;8.43;;;21.50;70.90;;;;;;4914356;28;87055;-83
2022/06/08 09:24:51;;;;;;;28.50;7.97;;;21.40;70.90;;;;;;4906553;28;87767;-82
2022/06/08 09:27:23;;;;;;;25.17;8.35;;;21.40;70.80;;;;;;4912831;28;87241;-81
2022/06/08 09:30:14;;;;;;;25.48;7.93;;;21.40;70.90;;;;;;4913147;28;88460;-85
2022/06/08 09:32:59;;;;;;;26.50;7.72;;;21.40;70.90;;;;;;4914294;28;87259;-84
2022/06/08 09:35:30;;;;;;;31.83;8.77;;;21.40;70.70;;;;;;4914789;28;88238;-84
2022/06/08 09:38:04;;;;;;;24.58;8.05;;;21.40;70.90;;;;;;4915514;28;87491;-85
2022/06/08 09:40:38;;;;;;;22.33;7.55;;;21.40;70.90;;;;;;4914232;28;87877;-86
2022/06/08 09:43:21;;;;;;;23.30;7.43;;;21.40;71.00;;;;;;4913554;28;87233;-86
2022/06/08 09:46:16;;;;;;;24.65;7.85;;;21.40;70.90;;;;;;4914908;28;88368;-85
2022/06/08 09:51:57;;;;;;;28.23;8.35;;;21.40;70.60;;;;;;4918106;28;87038;-88
2022/06/08 09:54:35;;;;;;;22.95;7.65;;;21.40;70.70;;;;;;4917664;28;87672;-85
2022/06/08 09:57:41;;;;;;;18.90;7.05;;;21.40;70.60;;;;;;4918698;28;87911;-84
2022/06/08 10:00:20;;;;;;;23.35;7.82;;;21.40;70.70;;;;;;4909446;28;89425;-84
2022/06/08 10:02:51;;;;;;;;;;;21.40;70.40;;;;;;4919100;28;87654;-87
2022/06/08 10:05:58;;;;;;;22.50;7.20;;;21.40;70.40;;;;;;4919123;28;86819;-84
2022/06/08 10:08:44;;;;;;;24.10;7.53;;;21.40;70.30;;;;;;4913292;28;88050;-81
2022/06/08 10:11:34;;;;;;;20.35;7.18;;;21.40;70.30;;;;;;4919265;28;88315;-84
2022/06/08 10:14:21;;;;;;;22.20;7.13;;;21.40;70.40;;;;;;4950674;28;87095;-86
2022/06/08 10:17:02;;;;;;;17.83;6.82;;;21.40;70.20;;;;;;4918827;28;87493;-88
2022/06/08 10:19:34;;;;;;;18.10;7.30;;;21.40;70.20;;;;;;4917803;28;88559;-85
2022/06/08 10:22:01;;;;;;;21.33;7.05;;;21.40;70.10;;;;;;4918112;28;87511;-86
2022/06/08 10:24:57;;;;;;;;;;;;;;;;;;;;;
2022/06/08 10:27:29;;;;;;;22.88;7.20;;;21.40;69.90;;;;;;4919240;28;87182;-85
2022/06/08 10:30:13;;;;;;;19.38;6.05;;;21.30;69.80;;;;;;4918637;28;87563;-82
2022/06/08 10:32:46;;;;;;;21.17;6.85;;;21.40;69.90;;;;;;4916489;28;87641;-87
2022/06/08 10:35:47;;;;;;;23.65;6.93;;;21.40;69.90;;;;;;4912481;28;87329;-86
2022/06/08 10:38:21;;;;;;;24.00;7.35;;;21.40;69.90;;;;;;4910131;28;86973;-89
2022/06/08 10:40:59;;;;;;;26.02;7.68;;;21.40;70.40;;;;;;4911428;28;87805;-86
2022/06/08 10:43:29;;;;;;;20.52;6.75;;;21.40;71.00;;;;;;4914778;28;90941;-84
2022/06/08 10:46:04;;;;;;;24.67;6.82;;;21.40;71.50;;;;;;4912401;28;87457;-87
2022/06/08 10:48:43;;;;;;;28.55;7.03;;;21.40;71.80;;;;;;4910876;28;87440;-87
2022/06/08 10:51:09;;;;;;;26.25;6.88;;;21.50;72.30;;;;;;4910570;28;89029;-88
2022/06/08 10:56:36;;;;;;;21.27;7.57;;;21.50;72.90;;;;;;4908796;28;87818;-83
2022/06/08 10:59:08;;;;;;;19.97;7.07;;;21.50;72.70;;;;;;4909188;28;88164;-83
2022/06/08 11:01:59;;;;;;;29.38;7.50;;;21.50;73.10;;;;;;4911929;28;87380;-84
2022/06/08 11:04:29;;;;;;;22.13;6.88;;;21.50;73.30;;;;;;4909708;28;87806;-85
2022/06/08 11:07:00;;;;;;;19.80;6.55;;;21.50;72.90;;;;;;4912226;28;87292;-85
2022/06/08 11:09:32;;;;;;;29.60;6.63;;;21.50;72.90;;;;;;4911133;28;87155;-86
2022/06/08 11:12:42;;;;;;;22.38;6.63;;;21.50;73.00;;;;;;4911518;28;87853;-87
2022/06/08 11:15:45;;;;;;;21.90;6.63;;;21.60;72.90;;;;;;4911140;28;87333;-84
2022/06/08 11:18:23;;;;;;;20.63;6.47;;;21.60;72.60;;;;;;4871006;28;88917;-86
2022/06/08 11:21:14;;;;;;;17.77;6.25;;;21.60;72.60;;;;;;4902248;28;88628;-89
2022/06/08 11:23:44;;;;;;;24.10;6.40;;;21.60;72.90;;;;;;4911372;28;88890;-87
2022/06/08 11:26:23;;;;;;;23.92;7.03;;;21.60;73.20;;;;;;4910186;28;88236;-83
2022/06/08 11:29:17;;;;;;;17.00;5.68;;;21.60;73.00;;;;;;4925188;28;87408;-84
2022/06/08 11:31:42;;;;;;;22.17;5.97;;;21.60;73.50;;;;;;4910177;28;87550;-82
2022/06/08 11:34:20;;;;;;;24.02;5.45;;;21.60;73.10;;;;;;4909940;28;87903;-82
2022/06/08 11:37:24;;;;;;;15.18;5.50;;;21.60;73.30;;;;;;4906767;28;87781;-82
2022/06/08 11:40:28;;;;;;;25.17;5.93;;;21.50;73.40;;;;;;4913314;28;87813;-82
2022/06/08 11:43:15;;;;;;;23.23;6.03;;;21.50;73.40;;;;;;4909458;28;87881;-87
2022/06/08 11:45:47;;;;;;;17.88;5.38;;;21.60;73.50;;;;;;4907029;28;91419;-82
2022/06/08 11:48:15;;;;;;;15.90;5.40;;;21.50;73.10;;;;;;4909551;28;88763;-84
2022/06/08 11:50:47;;;;;;;24.75;6.50;;;21.60;73.40;;;;;;4909503;28;86885;-82
2022/06/08 11:53:24;;;;;;;15.35;5.60;;;21.60;73.00;;;;;;4909036;28;88149;-82
2022/06/08 11:56:29;;;;;;;19.45;6.53;;;21.50;73.10;;;;;;4940242;28;93010;-85
2022/06/08 11:58:58;;;;;;;22.52;6.25;;;21.60;72.90;;;;;;4909367;28;87862;-82
2022/06/08 12:01:42;;;;;;;21.33;5.53;;;21.50;73.20;;;;;;4911301;28;87414;-83
2022/06/08 12:04:15;;;;;;;19.38;5.82;;;21.60;73.40;;;;;;4910248;28;87265;-85
2022/06/08 12:06:43;;;;;;;22.20;5.85;;;21.60;73.00;;;;;;4909859;28;87482;-83
2022/06/08 12:09:36;;;;;;;17.67;5.32;;;21.60;73.50;;;;;;4909821;28;87826;-83
2022/06/08 12:12:17;;;;;;;22.77;6.18;;;21.60;74.10;;;;;;4908119;28;88307;-82
2022/06/08 12:14:43;;;;;;;20.70;5.05;;;21.60;74.20;;;;;;4908284;28;87620;-83
2022/06/08 12:17:15;;;;;;;30.92;8.00;;;21.60;75.10;;;;;;4909468;28;87617;-83
2022/06/08 12:19:51;;;;;;;73.25;18.50;;;21.60;74.40;;;;;;4908282;28;90587;-83
2022/06/08 12:22:34;;;;;;;53.08;13.05;;;21.60;74.40;;;;;;4892274;28;87303;-84
2022/06/08 12:25:14;;;;;;;55.80;14.73;;;21.60;73.50;;;;;;4932976;28;87549;-85
2022/06/08 12:27:49;;;;;;;45.63;11.45;;;21.60;73.80;;;;;;4927854;28;88125;-85
2022/06/08 12:30:23;;;;;;;56.75;14.10;;;21.70;73.00;;;;;;4928526;28;87674;-84
2022/06/08 12:32:57;;;;;;;64.32;16.73;;;21.70;73.40;;;;;;4928625;28;87671;-87
2022/06/08 12:35:24;;;;;;;51.35;12.60;;;21.70;73.60;;;;;;4928511;28;87112;-86
2022/06/08 12:38:18;;;;;;;56.80;14.73;;;21.70;73.60;;;;;;4927455;28;88846;-86
2022/06/08 12:41:09;;;;;;;57.50;15.45;;;21.70;74.60;;;;;;4928893;28;88212;-91
2022/06/08 12:43:51;;;;;;;57.05;14.45;;;21.60;73.90;;;;;;4927852;28;88303;-86
2022/06/08 12:46:25;;;;;;;49.20;14.27;;;21.70;74.80;;;;;;4927022;28;88658;-85
2022/06/08 12:48:54;;;;;;;50.75;15.85;;;21.70;73.60;;;;;;4926382;28;89292;-89
2022/06/08 12:51:28;;;;;;;65.93;18.27;;;21.70;74.90;;;;;;4928984;28;87831;-84
2022/06/08 12:53:57;;;;;;;48.55;15.73;;;21.70;75.20;;;;;;4930184;28;87811;-87
2022/06/08 12:56:24;;;;;;;57.25;16.15;;;21.70;76.00;;;;;;4928001;28;87327;-89
2022/06/08 12:58:51;;;;;;;42.47;14.80;;;21.70;75.60;;;;;;4928082;28;87597;-87
2022/06/08 13:01:18;;;;;;;60.30;14.65;;;21.70;75.90;;;;;;4927857;28;87931;-89
2022/06/08 13:03:44;;;;;;;60.25;15.02;;;21.70;76.10;;;;;;4927450;28;89462;-83
2022/06/08 13:06:10;;;;;;;59.85;15.65;;;21.70;76.70;;;;;;4911218;28;88738;-87
2022/06/08 13:08:36;;;;;;;61.58;16.63;;;21.70;76.40;;;;;;4927769;28;88601;-82
2022/06/08 13:11:12;;;;;;;53.10;15.48;;;21.70;76.40;;;;;;4925347;28;89994;-84
2022/06/08 13:13:39;;;;;;;33.75;8.55;;;21.70;76.50;;;;;;4927156;28;87401;-84
2022/06/08 13:16:24;;;;;;;50.17;13.55;;;21.70;71.80;;;;;;4924935;28;90023;-84
2022/06/08 13:18:51;;;;;;;48.90;13.10;;;21.70;75.40;;;;;;4925570;28;90899;-84
2022/06/08 13:21:17;;;;;;;48.20;14.27;;;21.70;75.60;;;;;;4925987;28;90596;-83
2022/06/08 13:23:43;;;;;;;47.75;14.25;;;21.70;75.70;;;;;;4927505;28;86965;-82